createdAt,value
2019-03-15T00:01:42.652Z,27.80
2019-03-15T00:04:12.986Z,26.13
2019-03-15T00:06:42.282Z,30.77
2019-03-15T00:09:14.388Z,21.60
2019-03-15T00:11:43.538Z,25.80
2019-03-15T00:14:14.644Z,28.40
2019-03-15T00:16:43.766Z,21.97
2019-03-15T00:19:12.881Z,23.03
2019-03-15T00:21:42.019Z,27.57
2019-03-15T00:24:13.174Z,21.77
2019-03-15T00:26:44.996Z,27.53
2019-03-15T00:29:14.138Z,29.83
2019-03-15T00:31:43.245Z,30.37
2019-03-15T00:34:14.590Z,30.07
2019-03-15T00:36:43.712Z,23.50
2019-03-15T00:39:16.699Z,34.23
2019-03-15T00:41:46.790Z,26.13
2019-03-15T00:44:16.133Z,24.93
2019-03-15T00:46:46.331Z,29.03
2019-03-15T00:49:15.465Z,31.23
2019-03-15T00:51:44.642Z,27.13
2019-03-15T00:54:14.018Z,20.93
2019-03-15T00:56:43.191Z,27.50
2019-03-15T00:59:13.827Z,24.43
2019-03-15T01:01:42.901Z,21.80
2019-03-15T01:04:14.055Z,23.30
2019-03-15T01:06:45.240Z,29.50
2019-03-15T01:09:14.427Z,26.73
2019-03-15T01:11:45.563Z,29.17
2019-03-15T01:14:16.057Z,29.43
2019-03-15T01:16:46.759Z,26.10
2019-03-15T01:19:15.930Z,30.10
2019-03-15T01:21:45.163Z,26.80
2019-03-15T01:24:14.246Z,26.10
2019-03-15T01:26:43.561Z,35.70
2019-03-15T01:29:12.888Z,29.97
2019-03-15T01:31:42.264Z,26.03
2019-03-15T01:34:11.497Z,22.10
2019-03-15T01:36:40.693Z,27.20
2019-03-15T01:39:10.166Z,25.83
2019-03-15T01:41:39.448Z,28.53
2019-03-15T01:44:08.594Z,40.33
2019-03-15T01:46:37.722Z,30.07
2019-03-15T01:49:06.860Z,27.93
2019-03-15T01:51:36.014Z,34.70
2019-03-15T01:54:06.620Z,31.07
2019-03-15T01:56:37.744Z,26.57
2019-03-15T01:59:06.881Z,32.93
2019-03-15T02:01:36.001Z,29.00
2019-03-15T02:04:05.590Z,24.07
2019-03-15T02:06:34.843Z,31.70
2019-03-15T02:09:04.839Z,30.10
2019-03-15T02:11:33.937Z,30.63
2019-03-15T02:14:03.069Z,22.33
2019-03-15T02:16:32.229Z,20.50
2019-03-15T02:19:01.341Z,26.80
2019-03-15T02:21:30.486Z,30.10
2019-03-15T02:23:59.685Z,40.23
2019-03-15T02:26:28.791Z,27.93
2019-03-15T02:28:58.700Z,24.87
2019-03-15T02:31:27.855Z,38.90
2019-03-15T02:33:56.965Z,28.73
2019-03-15T02:36:26.262Z,26.37
2019-03-15T02:38:55.362Z,31.47
2019-03-15T02:41:24.478Z,34.57
2019-03-15T02:43:53.637Z,31.67
2019-03-15T02:46:22.799Z,36.23
2019-03-15T02:48:51.919Z,28.70
2019-03-15T02:51:21.065Z,34.03
2019-03-15T02:53:50.128Z,34.83
2019-03-15T02:56:19.314Z,35.63
2019-03-15T02:58:48.611Z,30.87
2019-03-15T03:01:19.608Z,40.57
2019-03-15T03:03:48.705Z,33.63
2019-03-15T03:06:19.363Z,35.17
2019-03-15T03:08:48.649Z,28.17
2019-03-15T03:11:17.720Z,30.77
2019-03-15T03:13:46.861Z,28.40
2019-03-15T03:16:18.704Z,29.10
2019-03-15T03:18:47.296Z,27.73
2019-03-15T03:21:16.642Z,34.57
2019-03-15T03:23:46.251Z,25.43
2019-03-15T03:26:15.955Z,26.63
2019-03-15T03:28:45.056Z,25.73
2019-03-15T03:31:15.756Z,18.60
2019-03-15T03:33:45.106Z,31.07
2019-03-15T03:36:14.236Z,27.60
2019-03-15T03:38:43.397Z,23.83
2019-03-15T03:41:12.628Z,20.80
2019-03-15T03:43:41.722Z,29.77
2019-03-15T03:46:12.033Z,28.13
2019-03-15T03:48:41.166Z,23.60
2019-03-15T03:51:10.292Z,27.00
2019-03-15T03:53:39.407Z,26.40
2019-03-15T03:56:08.559Z,32.20
2019-03-15T03:58:37.638Z,25.87
2019-03-15T04:01:07.676Z,24.63
2019-03-15T04:03:37.193Z,26.47
2019-03-15T04:06:06.365Z,29.17
2019-03-15T04:08:35.488Z,32.60
2019-03-15T04:11:04.604Z,31.17
2019-03-15T04:13:33.708Z,41.17
2019-03-15T04:16:03.139Z,25.53
2019-03-15T04:18:33.018Z,25.50
2019-03-15T04:21:03.036Z,37.60
2019-03-15T04:23:32.142Z,33.60
2019-03-15T04:26:03.038Z,42.80
2019-03-15T04:28:32.156Z,39.70
2019-03-15T04:31:01.245Z,44.73
2019-03-15T04:33:32.030Z,41.63
2019-03-15T04:36:01.157Z,40.67
2019-03-15T04:38:30.296Z,46.03
2019-03-15T04:40:59.437Z,45.53
2019-03-15T04:43:28.548Z,46.07
2019-03-15T04:45:57.836Z,52.07
2019-03-15T04:48:27.001Z,42.63
2019-03-15T04:50:56.487Z,37.37
2019-03-15T04:53:25.851Z,37.57
2019-03-15T04:55:56.755Z,39.67
2019-03-15T04:58:25.884Z,38.13
2019-03-15T05:00:57.449Z,41.23
2019-03-15T05:03:26.880Z,48.03
2019-03-15T05:06:02.982Z,39.40
2019-03-15T05:08:26.639Z,38.50
2019-03-15T05:10:58.948Z,46.63
2019-03-15T05:13:28.455Z,26.90
2019-03-15T05:15:57.607Z,38.27
2019-03-15T05:18:27.550Z,29.33
2019-03-15T05:20:56.885Z,25.13
2019-03-15T05:23:25.981Z,27.13
2019-03-15T05:25:55.111Z,29.73
2019-03-15T05:28:24.264Z,31.83
2019-03-15T05:30:54.858Z,29.43
2019-03-15T05:33:23.913Z,28.20
2019-03-15T05:35:53.058Z,26.50
2019-03-15T05:38:22.212Z,25.77
2019-03-15T05:40:51.485Z,20.20
2019-03-15T05:43:20.752Z,20.53
2019-03-15T05:45:49.912Z,16.50
2019-03-15T05:48:19.042Z,20.10
2019-03-15T05:50:48.182Z,20.53
2019-03-15T05:53:18.801Z,18.47
2019-03-15T05:55:47.878Z,18.20
2019-03-15T05:58:16.996Z,15.67
2019-03-15T06:00:46.123Z,17.33
2019-03-15T06:03:15.171Z,19.77
2019-03-15T06:05:44.316Z,15.83
2019-03-15T06:08:13.755Z,18.23
2019-03-15T06:10:43.144Z,13.87
2019-03-15T06:13:12.477Z,13.60
2019-03-15T06:15:41.754Z,13.10
2019-03-15T06:18:17.469Z,11.67
2019-03-15T06:20:44.082Z,14.73
2019-03-15T06:23:17.066Z,12.80
2019-03-15T06:25:47.779Z,14.00
2019-03-15T06:28:17.755Z,17.30
2019-03-15T06:30:46.907Z,20.80
2019-03-15T06:33:16.018Z,25.07
2019-03-15T06:35:45.232Z,21.53
2019-03-15T06:38:14.926Z,15.17
2019-03-15T06:40:45.401Z,13.97
2019-03-15T06:43:15.471Z,15.10
2019-03-15T06:45:44.560Z,5.73
2019-03-15T06:48:13.679Z,16.93
2019-03-15T06:50:42.821Z,16.23
2019-03-15T06:53:12.484Z,7.00
2019-03-15T06:55:58.898Z,8.57
2019-03-15T06:58:28.005Z,8.53
2019-03-15T07:00:57.433Z,16.40
2019-03-15T07:03:26.792Z,16.90
2019-03-15T07:05:55.966Z,21.37
2019-03-15T07:08:25.077Z,23.07
2019-03-15T07:10:56.636Z,15.47
2019-03-15T07:13:25.720Z,11.63
2019-03-15T07:15:54.972Z,13.40
2019-03-15T07:18:24.544Z,13.37
2019-03-15T07:20:53.791Z,29.70
2019-03-15T07:23:23.770Z,8.10
2019-03-15T07:25:54.771Z,14.37
2019-03-15T07:28:23.890Z,17.47
2019-03-15T07:30:52.986Z,15.17
2019-03-15T07:33:23.144Z,25.87
2019-03-15T07:35:52.430Z,26.03
2019-03-15T07:38:22.889Z,19.37
2019-03-15T07:40:52.016Z,12.90
2019-03-15T07:43:23.593Z,28.27
2019-03-15T07:45:52.998Z,21.23
2019-03-15T07:48:26.785Z,32.30
2019-03-15T07:50:56.722Z,32.80
2019-03-15T07:53:25.807Z,20.20
2019-03-15T07:55:55.048Z,21.20
2019-03-15T07:58:24.216Z,27.67
2019-03-15T08:00:53.410Z,26.30
2019-03-15T08:03:22.538Z,26.83
2019-03-15T08:05:51.696Z,24.20
2019-03-15T08:08:21.910Z,30.50
2019-03-15T08:10:54.748Z,20.47
2019-03-15T08:13:26.259Z,21.20
2019-03-15T08:15:55.436Z,27.80
2019-03-15T08:18:25.683Z,18.53
2019-03-15T08:20:54.999Z,26.40
2019-03-15T08:23:24.109Z,24.67
2019-03-15T08:25:53.293Z,24.57
2019-03-15T08:28:22.985Z,48.67
2019-03-15T08:30:52.053Z,26.53
2019-03-15T08:33:25.657Z,19.20
2019-03-15T08:35:57.525Z,28.10
2019-03-15T08:38:26.654Z,12.80
2019-03-15T08:40:55.773Z,27.53
2019-03-15T08:43:24.873Z,29.27
2019-03-15T08:45:55.059Z,37.27
2019-03-15T08:48:25.765Z,29.47
2019-03-15T08:50:57.326Z,19.03
2019-03-15T08:53:28.395Z,33.00
2019-03-15T08:55:57.859Z,20.70
2019-03-15T08:58:26.961Z,29.00
2019-03-15T09:00:56.407Z,39.93
2019-03-15T09:03:28.552Z,16.57
2019-03-15T09:06:00.551Z,21.10
2019-03-15T09:08:29.664Z,20.80
2019-03-15T09:10:58.804Z,17.97
2019-03-15T09:13:30.497Z,26.57
2019-03-15T09:15:59.600Z,16.50
2019-03-15T09:18:48.012Z,13.60
2019-03-15T09:21:17.526Z,16.73
2019-03-15T09:23:48.342Z,22.53
2019-03-15T09:26:17.485Z,21.93
2019-03-15T09:28:46.626Z,19.07
2019-03-15T09:31:15.775Z,20.27
2019-03-15T09:33:45.040Z,27.60
2019-03-15T09:36:14.159Z,31.73
2019-03-15T09:38:43.276Z,27.63
2019-03-15T09:41:12.619Z,29.23
2019-03-15T09:43:45.100Z,34.37
2019-03-15T09:46:12.818Z,25.93
2019-03-15T09:48:43.893Z,20.97
2019-03-15T09:51:12.908Z,37.63
2019-03-15T09:53:42.025Z,34.00
2019-03-15T09:56:11.183Z,17.10
2019-03-15T09:58:40.329Z,28.30
2019-03-15T10:01:09.529Z,33.40
2019-03-15T10:03:38.703Z,25.60
2019-03-15T10:06:15.021Z,21.93
2019-03-15T10:08:38.595Z,20.43
2019-03-15T10:11:08.050Z,18.17
2019-03-15T10:13:37.222Z,24.27
2019-03-15T10:16:06.297Z,20.47
2019-03-15T10:18:35.435Z,33.77
2019-03-15T10:21:05.269Z,34.27
2019-03-15T10:23:34.405Z,29.53
2019-03-15T10:26:03.556Z,14.87
2019-03-15T10:28:32.699Z,25.67
2019-03-15T10:31:01.862Z,20.60
2019-03-15T10:33:30.975Z,31.13
2019-03-15T10:36:00.113Z,17.03
2019-03-15T10:38:31.316Z,22.90
2019-03-15T10:41:01.370Z,24.80
2019-03-15T10:43:31.174Z,24.07
2019-03-15T10:46:00.260Z,12.93
2019-03-15T10:48:29.930Z,30.97
2019-03-15T10:50:59.232Z,27.90
2019-03-15T10:53:29.237Z,32.47
2019-03-15T10:56:00.351Z,25.90
2019-03-15T10:58:29.332Z,19.67
2019-03-15T11:00:58.434Z,27.83
2019-03-15T11:03:29.218Z,31.30
2019-03-15T11:05:58.640Z,19.70
2019-03-15T11:08:32.009Z,26.97
2019-03-15T11:11:01.130Z,30.83
2019-03-15T11:13:30.961Z,30.53
2019-03-15T11:16:00.123Z,28.97
2019-03-15T11:18:29.256Z,32.17
2019-03-15T11:20:58.409Z,29.83
2019-03-15T11:23:27.543Z,24.63
2019-03-15T11:25:57.222Z,27.20
2019-03-15T11:28:28.616Z,22.30
2019-03-15T11:31:00.638Z,19.70
2019-03-15T11:33:28.597Z,20.80
2019-03-15T11:35:59.208Z,27.13
2019-03-15T11:38:28.315Z,21.67
2019-03-15T11:40:57.453Z,31.33
2019-03-15T11:43:26.601Z,28.43
2019-03-15T11:45:55.714Z,35.90
2019-03-15T11:48:26.137Z,25.40
2019-03-15T11:50:58.442Z,19.00
2019-03-15T11:53:27.564Z,24.40
2019-03-15T11:55:56.718Z,24.17
2019-03-15T11:58:25.821Z,33.53
2019-03-15T12:00:54.931Z,24.90
2019-03-15T12:03:24.080Z,32.03
2019-03-15T12:05:53.204Z,28.03
2019-03-15T12:08:22.320Z,38.07
2019-03-15T12:10:51.490Z,26.40
2019-03-15T12:13:20.644Z,19.37
2019-03-15T12:15:50.091Z,21.30
2019-03-15T12:18:19.219Z,30.03
2019-03-15T12:20:49.414Z,30.07
2019-03-15T12:23:20.469Z,18.53
2019-03-15T12:25:49.710Z,20.83
2019-03-15T12:28:21.041Z,21.23
2019-03-15T12:30:50.092Z,18.23
2019-03-15T12:33:19.301Z,22.83
2019-03-15T12:35:49.594Z,26.83
2019-03-15T12:38:18.705Z,27.67
2019-03-15T12:40:47.894Z,36.77
2019-03-15T12:43:17.017Z,22.20
2019-03-15T12:45:46.148Z,29.87
2019-03-15T12:48:15.359Z,40.13
2019-03-15T12:50:44.476Z,15.93
2019-03-15T12:53:13.605Z,20.67
2019-03-15T12:55:42.718Z,29.90
2019-03-15T12:58:12.164Z,25.00
2019-03-15T13:00:41.284Z,17.13
2019-03-15T13:03:10.451Z,36.43
2019-03-15T13:05:39.645Z,33.87
2019-03-15T13:08:08.842Z,20.13
2019-03-15T13:10:39.559Z,24.50
2019-03-15T13:13:08.756Z,42.53
2019-03-15T13:15:37.855Z,33.90
2019-03-15T13:18:07.014Z,33.10
2019-03-15T13:20:36.134Z,24.20
2019-03-15T13:23:05.316Z,24.07
2019-03-15T13:25:34.480Z,26.33
2019-03-15T13:28:03.636Z,29.80
2019-03-15T13:30:32.728Z,24.70
2019-03-15T13:33:01.877Z,24.17
2019-03-15T13:35:32.258Z,22.73
2019-03-15T13:38:03.298Z,32.13
2019-03-15T13:40:32.496Z,33.07
2019-03-15T13:43:01.599Z,24.17
2019-03-15T13:45:30.709Z,24.70
2019-03-15T13:47:59.856Z,54.90
2019-03-15T13:50:28.967Z,27.27
2019-03-15T13:52:58.085Z,26.40
2019-03-15T13:55:27.216Z,24.00
2019-03-15T13:57:56.355Z,24.57
2019-03-15T14:00:25.487Z,24.93
2019-03-15T14:02:54.635Z,50.80
2019-03-15T14:05:23.752Z,41.80
2019-03-15T14:07:52.925Z,32.67
2019-03-15T14:10:21.990Z,21.80
2019-03-15T14:12:52.116Z,28.73
2019-03-15T14:15:21.215Z,29.40
2019-03-15T14:17:50.388Z,30.23
2019-03-15T14:20:19.602Z,24.47
2019-03-15T14:22:48.712Z,40.57
2019-03-15T14:25:18.057Z,40.30
2019-03-15T14:27:47.271Z,25.83
2019-03-15T14:30:16.358Z,28.83
2019-03-15T14:32:45.394Z,40.60
2019-03-15T14:35:15.516Z,45.37
2019-03-15T14:37:44.614Z,47.67
2019-03-15T14:40:13.722Z,39.00
2019-03-15T14:42:43.149Z,38.93
2019-03-15T14:45:12.604Z,56.13
2019-03-15T14:47:41.786Z,45.73
2019-03-15T14:50:13.314Z,33.90
2019-03-15T14:52:45.029Z,42.63
2019-03-15T14:55:14.638Z,36.63
2019-03-15T14:57:52.191Z,41.17
2019-03-15T15:00:16.947Z,44.70
2019-03-15T15:02:46.374Z,48.47
2019-03-15T15:05:16.779Z,52.07
2019-03-15T15:07:48.883Z,47.33
2019-03-15T15:10:18.089Z,60.13
2019-03-15T15:12:47.119Z,46.50
2019-03-15T15:15:16.244Z,29.33
2019-03-15T15:17:45.561Z,64.90
2019-03-15T15:20:14.688Z,42.20
2019-03-15T15:22:43.786Z,34.57
2019-03-15T15:25:12.945Z,39.57
2019-03-15T15:27:44.466Z,13.93
2019-03-15T15:30:13.827Z,23.53
2019-03-15T15:32:43.066Z,42.97
2019-03-15T15:35:15.198Z,63.50
2019-03-15T15:37:55.906Z,45.37
2019-03-15T15:40:25.064Z,74.23
2019-03-15T15:42:54.125Z,66.13
2019-03-15T15:45:25.132Z,61.77
2019-03-15T15:47:57.856Z,54.20
2019-03-15T15:50:34.893Z,56.33
2019-03-15T15:53:12.619Z,54.53
2019-03-15T15:55:50.692Z,52.37
2019-03-15T15:58:21.077Z,46.50
2019-03-15T16:00:52.076Z,52.00
2019-03-15T16:03:23.268Z,37.77
2019-03-15T16:05:55.726Z,61.83
2019-03-15T16:08:24.812Z,78.07
2019-03-15T16:10:58.956Z,50.97
2019-03-15T16:13:30.141Z,67.53
2019-03-15T16:16:14.140Z,36.97
2019-03-15T16:18:46.227Z,34.77
2019-03-15T16:21:19.077Z,34.07
2019-03-15T16:23:48.111Z,40.63
2019-03-15T16:26:18.497Z,48.27
2019-03-15T16:28:47.736Z,41.93
2019-03-15T16:31:22.775Z,28.50
2019-03-15T16:33:51.920Z,23.00
2019-03-15T16:36:21.021Z,79.77
2019-03-15T16:38:50.133Z,36.17
2019-03-15T16:41:19.254Z,33.67
2019-03-15T16:43:50.436Z,33.47
2019-03-15T16:46:20.374Z,24.07
2019-03-15T16:48:50.407Z,28.40
2019-03-15T16:51:24.104Z,26.23
2019-03-15T16:53:54.488Z,34.23
2019-03-15T16:56:26.894Z,20.77
2019-03-15T16:58:56.534Z,27.57
2019-03-15T17:01:25.650Z,27.00
2019-03-15T17:03:54.708Z,21.73
2019-03-15T17:06:25.374Z,30.30
2019-03-15T17:09:03.888Z,31.17
2019-03-15T17:11:36.882Z,28.53
2019-03-15T17:14:07.171Z,29.20
2019-03-15T17:16:36.308Z,31.73
2019-03-15T17:19:07.639Z,33.10
2019-03-15T17:21:36.764Z,36.87
2019-03-15T17:24:05.897Z,25.47
2019-03-15T17:26:39.870Z,41.90
2019-03-15T17:29:12.294Z,32.53
2019-03-15T17:31:43.251Z,35.00
2019-03-15T17:34:14.419Z,33.80
2019-03-15T17:36:43.585Z,29.47
2019-03-15T17:39:12.719Z,41.80
2019-03-15T17:41:58.378Z,39.53
2019-03-15T17:44:30.703Z,27.40
2019-03-15T17:47:04.428Z,52.33
2019-03-15T17:49:33.865Z,37.47
2019-03-15T17:52:10.175Z,29.70
2019-03-15T17:54:39.210Z,41.60
2019-03-15T17:57:08.335Z,45.30
2019-03-15T17:59:39.794Z,33.70
2019-03-15T18:02:14.248Z,37.53
2019-03-15T18:04:50.245Z,30.07
2019-03-15T18:07:28.010Z,39.70
2019-03-15T18:10:08.457Z,37.20
2019-03-15T18:12:48.176Z,30.90
2019-03-15T18:15:27.546Z,46.30
2019-03-15T18:18:04.126Z,45.93
2019-03-15T18:20:37.827Z,37.13
2019-03-15T18:23:15.416Z,45.93
2019-03-15T18:25:44.540Z,36.33
2019-03-15T18:28:16.250Z,43.50
2019-03-15T18:30:45.501Z,42.23
2019-03-15T18:33:14.661Z,30.23
2019-03-15T18:35:43.793Z,33.80
2019-03-15T18:38:13.336Z,35.97
2019-03-15T18:40:42.671Z,37.93
2019-03-15T18:43:12.640Z,39.30
2019-03-15T18:45:41.762Z,39.80
2019-03-15T18:48:10.915Z,25.27
2019-03-15T18:50:40.007Z,41.50
2019-03-15T18:53:09.344Z,31.30
2019-03-15T18:55:38.593Z,36.90
2019-03-15T18:58:07.880Z,38.77
2019-03-15T19:00:37.081Z,38.60
2019-03-15T19:03:06.372Z,49.73
2019-03-15T19:05:45.285Z,31.83
2019-03-15T19:08:14.408Z,38.77
2019-03-15T19:10:46.933Z,38.57
2019-03-15T19:13:19.100Z,34.10
2019-03-15T19:15:48.290Z,38.97
2019-03-15T19:18:19.286Z,24.50
2019-03-15T19:20:54.605Z,29.73
2019-03-15T19:23:23.732Z,30.33
2019-03-15T19:25:52.806Z,34.57
2019-03-15T19:28:22.200Z,30.20
2019-03-15T19:30:51.403Z,25.97
2019-03-15T19:33:20.648Z,37.70
2019-03-15T19:35:49.852Z,42.30
2019-03-15T19:38:19.086Z,38.40
2019-03-15T19:40:48.229Z,42.60
2019-03-15T19:43:17.430Z,34.63
2019-03-15T19:45:46.967Z,41.80
2019-03-15T19:48:16.015Z,43.70
2019-03-15T19:50:45.063Z,35.97
2019-03-15T19:53:14.775Z,39.63
2019-03-15T19:55:44.514Z,40.73
2019-03-15T19:58:15.071Z,36.37
2019-03-15T20:00:44.049Z,32.93
2019-03-15T20:03:13.160Z,34.13
2019-03-15T20:05:42.654Z,42.97
2019-03-15T20:08:12.208Z,48.10
2019-03-15T20:10:41.345Z,35.40
2019-03-15T20:13:10.481Z,33.60
2019-03-15T20:15:39.621Z,37.30
2019-03-15T20:18:08.825Z,26.33
2019-03-15T20:20:38.291Z,29.67
2019-03-15T20:23:09.054Z,27.10
2019-03-15T20:25:38.175Z,30.10
2019-03-15T20:28:07.476Z,29.67
2019-03-15T20:30:36.783Z,28.23
2019-03-15T20:33:06.998Z,34.40
2019-03-15T20:35:36.170Z,34.90
2019-03-15T20:38:07.502Z,29.77
2019-03-15T20:41:19.504Z,28.53
2019-03-15T20:43:50.783Z,35.27
2019-03-15T20:46:19.929Z,34.50
2019-03-15T20:48:49.068Z,32.20
2019-03-15T20:51:18.244Z,37.07
2019-03-15T20:53:47.363Z,37.00
2019-03-15T20:56:17.981Z,46.13
2019-03-15T20:58:47.085Z,39.37
2019-03-15T21:01:16.290Z,34.77
2019-03-15T21:03:55.516Z,29.47
2019-03-15T21:06:16.305Z,41.53
2019-03-15T21:08:45.437Z,25.97
2019-03-15T21:11:14.559Z,24.83
2019-03-15T21:13:44.174Z,17.07
2019-03-15T21:16:18.139Z,11.10
2019-03-15T21:18:48.295Z,26.17
2019-03-15T21:21:17.440Z,16.97
2019-03-15T21:23:46.605Z,25.13
2019-03-15T21:26:15.698Z,27.63
2019-03-15T21:28:47.490Z,20.30
2019-03-15T21:31:18.479Z,10.67
2019-03-15T21:33:48.055Z,18.30
2019-03-15T21:36:17.097Z,17.87
2019-03-15T21:38:48.382Z,17.70
2019-03-15T21:41:19.160Z,14.93
2019-03-15T21:43:48.626Z,17.13
2019-03-15T21:46:19.957Z,18.07
2019-03-15T21:48:48.984Z,15.73
2019-03-15T21:51:18.364Z,17.37
2019-03-15T21:53:47.488Z,16.13
2019-03-15T21:56:18.862Z,14.13
2019-03-15T21:58:47.960Z,20.60
2019-03-15T22:01:17.092Z,19.20
2019-03-15T22:03:46.190Z,15.87
2019-03-15T22:06:15.399Z,15.27
2019-03-15T22:08:44.494Z,16.93
2019-03-15T22:11:20.957Z,24.53
2019-03-15T22:13:47.115Z,16.70
2019-03-15T22:16:16.263Z,22.63
2019-03-15T22:18:45.397Z,20.40
2019-03-15T22:21:14.517Z,20.17
2019-03-15T22:23:44.007Z,15.93
2019-03-15T22:26:13.075Z,19.30
2019-03-15T22:28:42.181Z,30.93
2019-03-15T22:31:16.954Z,23.57
2019-03-15T22:33:43.737Z,25.37
2019-03-15T22:36:14.019Z,20.37
2019-03-15T22:38:45.472Z,28.17
2019-03-15T22:41:14.609Z,25.30
2019-03-15T22:43:44.283Z,28.47
2019-03-15T22:46:13.363Z,24.23
2019-03-15T22:48:42.503Z,25.37
2019-03-15T22:51:12.991Z,29.97
2019-03-15T22:53:42.013Z,27.20
2019-03-15T22:56:11.139Z,27.77
2019-03-15T22:58:41.623Z,27.53
2019-03-15T23:01:29.541Z,26.50
2019-03-15T23:03:51.563Z,24.13
2019-03-15T23:06:22.111Z,23.57
2019-03-15T23:08:53.245Z,21.63
2019-03-15T23:11:22.473Z,21.90
2019-03-15T23:13:51.560Z,22.20
2019-03-15T23:16:23.162Z,24.23
2019-03-15T23:18:52.282Z,25.47
2019-03-15T23:21:22.181Z,28.97
2019-03-15T23:23:52.547Z,21.47
2019-03-15T23:26:22.126Z,23.60
2019-03-15T23:28:54.300Z,21.07
2019-03-15T23:31:23.412Z,26.43
2019-03-15T23:33:52.563Z,34.50
2019-03-15T23:36:21.606Z,28.80
2019-03-15T23:38:50.656Z,35.53
2019-03-15T23:41:19.996Z,34.50
2019-03-15T23:43:52.738Z,28.43
2019-03-15T23:46:21.846Z,36.87
2019-03-15T23:48:50.893Z,35.90
2019-03-15T23:51:20.066Z,27.37
2019-03-15T23:53:49.111Z,29.47
2019-03-15T23:56:18.190Z,26.97
2019-03-15T23:58:48.293Z,29.07
